createdAt,value
2016-07-25T00:03:06.274Z,18
2016-07-25T00:06:22.604Z,17.9
2016-07-25T00:09:36.844Z,17.9
2016-07-25T00:12:55.813Z,17.9
2016-07-25T00:16:00.230Z,17.9
2016-07-25T00:19:14.322Z,17.8
2016-07-25T00:22:28.007Z,17.8
2016-07-25T00:25:41.723Z,17.8
2016-07-25T00:28:55.529Z,17.8
2016-07-25T00:32:09.530Z,17.8
2016-07-25T00:35:23.726Z,17.8
2016-07-25T00:38:37.860Z,17.7
2016-07-25T00:41:56.503Z,17.7
2016-07-25T00:45:00.784Z,17.7
2016-07-25T00:48:14.735Z,17.7
2016-07-25T00:51:28.599Z,17.7
2016-07-25T00:54:42.495Z,17.7
2016-07-25T00:57:56.403Z,17.7
2016-07-25T01:01:10.479Z,17.7
2016-07-25T01:04:24.415Z,17.6
2016-07-25T01:07:38.278Z,17.7
2016-07-25T01:10:57.431Z,17.6
2016-07-25T01:14:01.824Z,17.6
2016-07-25T01:17:15.814Z,17.6
2016-07-25T01:20:29.851Z,17.5
2016-07-25T01:23:47.280Z,17.5
2016-07-25T01:26:57.581Z,17.5
2016-07-25T01:30:02.048Z,17.5
2016-07-25T01:33:16.138Z,17.5
2016-07-25T01:36:29.929Z,17.4
2016-07-25T01:39:48.717Z,17.4
2016-07-25T01:42:50.944Z,17.4
2016-07-25T01:46:06.969Z,17.3
2016-07-25T01:49:21.175Z,17.3
2016-07-25T01:52:35.306Z,17.2
2016-07-25T01:55:54.638Z,17.2
2016-07-25T01:58:58.848Z,17.2
2016-07-25T02:02:12.948Z,17.2
2016-07-25T02:05:26.673Z,17.2
2016-07-25T02:08:40.585Z,17.2
2016-07-25T02:11:54.742Z,17.2
2016-07-25T02:15:08.912Z,17.1
2016-07-25T02:18:22.460Z,17.1
2016-07-25T02:21:36.335Z,17.1
2016-07-25T02:24:55.471Z,17
2016-07-25T02:27:59.861Z,17
2016-07-25T02:31:13.649Z,17
2016-07-25T02:34:27.511Z,16.9
2016-07-25T02:37:41.415Z,16.9
2016-07-25T02:40:55.247Z,16.9
2016-07-25T02:44:09.376Z,16.8
2016-07-25T02:47:23.483Z,16.7
2016-07-25T02:50:37.377Z,16.7
2016-07-25T02:53:56.550Z,16.7
2016-07-25T02:56:58.669Z,16.7
2016-07-25T03:00:14.851Z,16.7
2016-07-25T03:03:28.822Z,16.7
2016-07-25T03:06:47.008Z,16.6
2016-07-25T03:09:56.816Z,16.7
2016-07-25T03:13:10.802Z,16.6
2016-07-25T03:16:24.873Z,16.6
2016-07-25T03:19:38.842Z,16.6
2016-07-25T03:22:57.938Z,16.5
2016-07-25T03:26:02.154Z,16.5
2016-07-25T03:29:16.135Z,16.4
2016-07-25T03:32:30.083Z,16.4
2016-07-25T03:35:49.273Z,16.4
2016-07-25T03:38:53.585Z,16.4
2016-07-25T03:42:07.439Z,16.5
2016-07-25T03:45:21.262Z,16.5
2016-07-25T03:48:35.107Z,16.5
2016-07-25T03:54:58.344Z,16.4
2016-07-25T03:58:12.363Z,16.4
2016-07-25T04:01:24.383Z,16.3
2016-07-25T04:04:40.063Z,16.4
2016-07-25T04:07:54.058Z,16.4
2016-07-25T04:11:08.117Z,16.4
2016-07-25T04:14:22.061Z,16.4
2016-07-25T04:17:36.079Z,16.4
2016-07-25T04:20:55.223Z,16.5
2016-07-25T04:23:59.710Z,16.5
2016-07-25T04:27:13.705Z,16.5
2016-07-25T04:30:27.894Z,16.6
2016-07-25T04:33:40.160Z,16.6
2016-07-25T04:36:59.770Z,16.6
2016-07-25T04:40:09.850Z,16.7
2016-07-25T04:43:24.026Z,16.7
2016-07-25T04:46:38.204Z,16.8
2016-07-25T04:49:57.079Z,16.9
2016-07-25T04:53:01.481Z,16.9
2016-07-25T04:56:15.180Z,17
2016-07-25T04:59:29.255Z,17.1
2016-07-25T05:02:43.107Z,17.1
2016-07-25T05:05:57.359Z,17.2
2016-07-25T05:09:11.314Z,17.4
2016-07-25T05:12:25.246Z,17.5
2016-07-25T05:15:39.288Z,17.6
2016-07-25T05:18:53.346Z,17.8
2016-07-25T05:22:07.603Z,18
2016-07-25T05:25:21.758Z,18.3
2016-07-25T05:28:35.751Z,18.5
2016-07-25T05:31:55.180Z,18.8
2016-07-25T05:34:59.981Z,19.1
2016-07-25T05:38:14.283Z,19.3
2016-07-25T05:41:28.215Z,19.5
2016-07-25T05:44:42.714Z,19.8
2016-07-25T05:47:56.771Z,19.9
2016-07-25T05:51:11.258Z,20.1
2016-07-25T05:54:25.719Z,20.3
2016-07-25T05:57:40.152Z,20.5
2016-07-25T06:00:54.699Z,20.7
2016-07-25T06:04:09.180Z,20.8
2016-07-25T06:07:23.543Z,21
2016-07-25T06:10:37.991Z,21.3
2016-07-25T06:13:57.595Z,21.6
2016-07-25T06:17:02.534Z,21.9
2016-07-25T06:20:16.995Z,22
2016-07-25T06:23:31.539Z,22.2
2016-07-25T06:26:51.171Z,22.3
2016-07-25T06:29:56.175Z,22.4
2016-07-25T06:33:10.825Z,22.6
2016-07-25T06:36:25.514Z,22.7
2016-07-25T06:39:40.023Z,23.1
2016-07-25T06:42:54.997Z,23.5
2016-07-25T06:49:24.828Z,24
2016-07-25T06:52:39.211Z,24.6
2016-07-25T06:55:53.905Z,25.2
2016-07-25T06:59:08.823Z,25.8
2016-07-25T07:02:23.786Z,26.3
2016-07-25T07:05:39.050Z,26.5
2016-07-25T07:08:53.867Z,26.7
2016-07-25T07:12:08.756Z,27.3
2016-07-25T07:15:23.972Z,27.9
2016-07-25T07:18:39.400Z,28.2
2016-07-25T07:21:54.903Z,28.8
2016-07-25T07:25:10.357Z,29.4
2016-07-25T07:28:26.095Z,30.1
2016-07-25T07:31:41.800Z,30.4
2016-07-25T07:34:57.760Z,30.9
2016-07-25T07:38:13.980Z,31.2
2016-07-25T07:41:30.108Z,31.2
2016-07-25T07:44:51.029Z,31.3
2016-07-25T07:47:57.211Z,31.4
2016-07-25T07:51:12.853Z,31.5
2016-07-25T07:54:28.368Z,31.4
2016-07-25T07:57:48.722Z,31.6
2016-07-25T08:00:54.469Z,31.6
2016-07-25T08:07:24.791Z,31.8
2016-07-25T08:10:40.135Z,32.4
2016-07-25T08:13:55.575Z,32.5
2016-07-25T08:17:10.964Z,32.6
2016-07-25T08:20:26.004Z,32.6
2016-07-25T08:26:55.875Z,32.9
2016-07-25T08:30:10.905Z,33.2
2016-07-25T08:33:25.332Z,32.9
2016-07-25T08:36:40.592Z,33.1
2016-07-25T08:39:53.859Z,33
2016-07-25T08:43:11.031Z,33.3
2016-07-25T08:46:25.914Z,33.2
2016-07-25T08:49:41.186Z,33.2
2016-07-25T08:52:56.077Z,33
2016-07-25T08:56:11.008Z,33.1
2016-07-25T08:59:25.668Z,33
2016-07-25T09:02:40.252Z,33
2016-07-25T09:05:55.244Z,33
2016-07-25T09:09:10.200Z,32.8
2016-07-25T09:12:24.698Z,32.6
2016-07-25T09:15:39.593Z,32.7
2016-07-25T09:18:54.479Z,32.5
2016-07-25T09:22:09.549Z,32.6
2016-07-25T09:25:24.260Z,32.7
2016-07-25T09:28:39.307Z,32.6
2016-07-25T09:31:52.396Z,32.4
2016-07-25T09:35:09.510Z,32.4
2016-07-25T09:38:24.635Z,32.4
2016-07-25T09:41:38.992Z,32.3
2016-07-25T09:44:54.070Z,32.2
2016-07-25T09:48:08.887Z,32.3
2016-07-25T09:51:24.012Z,32.4
2016-07-25T09:54:39.183Z,32.4
2016-07-25T09:57:53.894Z,31.1
2016-07-25T10:01:08.335Z,30.9
2016-07-25T10:04:20.731Z,31.1
2016-07-25T10:07:37.209Z,31
2016-07-25T10:10:56.445Z,30.9
2016-07-25T10:14:01.604Z,30.7
2016-07-25T10:17:15.829Z,30.3
2016-07-25T10:20:30.344Z,30.1
2016-07-25T10:23:49.430Z,30
2016-07-25T10:26:54.294Z,29.7
2016-07-25T10:30:08.709Z,29.5
2016-07-25T10:33:22.927Z,29.4
2016-07-25T10:36:37.887Z,29.3
2016-07-25T10:39:57.726Z,29.1
2016-07-25T10:43:02.901Z,28.9
2016-07-25T10:46:17.510Z,28.7
2016-07-25T10:49:32.059Z,28.6
2016-07-25T10:52:51.168Z,28.6
2016-07-25T10:55:56.364Z,28.5
2016-07-25T10:59:11.193Z,28.2
2016-07-25T11:02:25.621Z,27.9
2016-07-25T11:05:39.775Z,27.8
2016-07-25T11:08:54.237Z,27.8
2016-07-25T11:12:08.835Z,27.8
2016-07-25T11:15:22.607Z,27.6
2016-07-25T11:18:41.622Z,27.4
2016-07-25T11:21:51.533Z,27.3
2016-07-25T11:24:56.523Z,27.1
2016-07-25T11:28:10.608Z,26.9
2016-07-25T11:31:24.996Z,26.8
2016-07-25T11:34:39.388Z,26.7
2016-07-25T11:37:53.591Z,26.7
2016-07-25T11:41:08.048Z,26.7
2016-07-25T11:44:22.256Z,26.6
2016-07-25T11:47:36.416Z,26.5
2016-07-25T11:50:55.394Z,26.5
2016-07-25T11:54:00.443Z,26.6
2016-07-25T11:57:14.601Z,26.5
2016-07-25T12:00:28.843Z,26.4
2016-07-25T12:03:42.866Z,26.4
2016-07-25T12:06:56.853Z,26.4
2016-07-25T12:10:10.884Z,26.3
2016-07-25T12:13:25.099Z,26.2
2016-07-25T12:16:39.569Z,26.2
2016-07-25T12:19:54.035Z,26.2
2016-07-25T12:23:08.374Z,26.2
2016-07-25T12:26:22.536Z,26.2
2016-07-25T12:29:36.372Z,26.2
2016-07-25T12:32:55.751Z,26.2
2016-07-25T12:36:00.472Z,26.2
2016-07-25T12:39:14.930Z,26.2
2016-07-25T12:42:29.239Z,26.2
2016-07-25T12:45:48.396Z,26.2
2016-07-25T12:48:58.107Z,26.2
2016-07-25T12:52:03.032Z,26.3
2016-07-25T12:55:16.886Z,26.3
2016-07-25T12:58:31.141Z,26.2
2016-07-25T13:01:50.418Z,26.2
2016-07-25T13:04:55.164Z,26.2
2016-07-25T13:08:09.286Z,26.2
2016-07-25T13:11:23.393Z,26.2
2016-07-25T13:14:37.493Z,26.2
2016-07-25T13:17:57.042Z,26.3
2016-07-25T13:21:01.853Z,26.3
2016-07-25T13:24:16.492Z,26.3
2016-07-25T13:27:30.525Z,26.3
2016-07-25T13:30:49.833Z,26.4
2016-07-25T13:33:54.622Z,26.3
2016-07-25T13:37:08.830Z,26.3
2016-07-25T13:40:22.912Z,26.3
2016-07-25T13:43:37.393Z,26.3
2016-07-25T13:46:56.687Z,26.2
2016-07-25T13:50:01.450Z,26.3
2016-07-25T13:53:15.637Z,26.3
2016-07-25T13:56:30.204Z,26.3
2016-07-25T13:59:49.656Z,26.3
2016-07-25T14:02:54.536Z,26.3
2016-07-25T14:06:08.811Z,26.3
2016-07-25T14:09:22.718Z,26.2
2016-07-25T14:12:36.674Z,26.2
2016-07-25T14:15:56.120Z,26.2
2016-07-25T14:19:00.876Z,26.2
2016-07-25T14:22:15.117Z,26.2
2016-07-25T14:25:28.776Z,26.2
2016-07-25T14:28:42.703Z,26.2
2016-07-25T14:31:56.574Z,26.2
2016-07-25T14:35:10.621Z,26.2
2016-07-25T14:38:24.844Z,26.2
2016-07-25T14:41:38.943Z,26.2
2016-07-25T14:44:58.109Z,26.3
2016-07-25T14:48:02.805Z,26.3
2016-07-25T14:51:17.092Z,26.2
2016-07-25T14:54:31.212Z,26
2016-07-25T14:57:50.494Z,25.8
2016-07-25T15:00:55.196Z,25.7
2016-07-25T15:04:09.298Z,25.5
2016-07-25T15:07:23.598Z,25.4
2016-07-25T15:10:37.576Z,25.4
2016-07-25T15:13:56.523Z,25.3
2016-07-25T15:20:15.184Z,25.2
2016-07-25T15:23:29.133Z,25.1
2016-07-25T15:26:43.231Z,25
2016-07-25T15:29:57.241Z,25.1
2016-07-25T15:33:11.093Z,25.1
2016-07-25T15:36:25.141Z,25.1
2016-07-25T15:39:39.363Z,25.1
2016-07-25T15:42:58.223Z,25
2016-07-25T15:46:02.973Z,24.9
2016-07-25T15:49:17.137Z,24.9
2016-07-25T15:52:31.362Z,24.9
2016-07-25T15:58:55.215Z,24.9
2016-07-25T16:05:22.649Z,25
2016-07-25T16:08:36.784Z,25
2016-07-25T16:11:55.778Z,25.1
2016-07-25T16:15:04.369Z,25.1
2016-07-25T16:18:14.334Z,25.1
2016-07-25T16:21:28.234Z,25.2
2016-07-25T16:24:42.542Z,25.2
2016-07-25T16:27:56.708Z,25.3
2016-07-25T16:31:10.722Z,25.3
2016-07-25T16:34:25.069Z,25.3
2016-07-25T16:37:39.083Z,25.4
2016-07-25T16:40:58.129Z,25.3
2016-07-25T16:44:02.953Z,25.3
2016-07-25T16:50:30.756Z,25.1
2016-07-25T16:53:49.702Z,25
2016-07-25T16:56:52.391Z,25
2016-07-25T17:00:08.051Z,24.9
2016-07-25T17:03:21.940Z,24.8
2016-07-25T17:06:35.950Z,24.8
2016-07-25T17:09:54.824Z,24.8
2016-07-25T17:12:57.697Z,24.7
2016-07-25T17:16:13.614Z,24.7
2016-07-25T17:19:27.442Z,24.7
2016-07-25T17:22:41.989Z,24.7
2016-07-25T17:25:56.159Z,24.7
2016-07-25T17:29:10.401Z,24.6
2016-07-25T17:35:38.384Z,24.6
2016-07-25T17:38:57.094Z,24.5
2016-07-25T17:42:01.790Z,24.4
2016-07-25T17:45:15.779Z,24.3
2016-07-25T17:48:29.657Z,24.3
2016-07-25T17:51:43.408Z,24.2
2016-07-25T17:54:57.561Z,24.1
2016-07-25T17:58:11.918Z,24.1
2016-07-25T18:01:26.400Z,24
2016-07-25T18:04:40.580Z,24
2016-07-25T18:07:53.750Z,23.9
2016-07-25T18:11:07.728Z,23.9
2016-07-25T18:14:21.896Z,23.9
2016-07-25T18:17:36.364Z,23.8
2016-07-25T18:20:55.693Z,23.8
2016-07-25T18:24:00.430Z,23.7
2016-07-25T18:27:14.564Z,23.7
2016-07-25T18:30:28.405Z,23.6
2016-07-25T18:33:42.459Z,23.6
2016-07-25T18:36:56.287Z,23.6
2016-07-25T18:40:08.105Z,23.5
2016-07-25T18:43:24.144Z,23.5
2016-07-25T18:46:38.394Z,23.4
2016-07-25T18:49:57.165Z,23.4
2016-07-25T18:53:01.823Z,23.3
2016-07-25T18:56:16.177Z,23.3
2016-07-25T18:59:30.496Z,23.2
2016-07-25T19:02:49.514Z,23.2
2016-07-25T19:05:54.195Z,23.1
2016-07-25T19:09:06.526Z,23.1
2016-07-25T19:12:22.521Z,23
2016-07-25T19:15:36.605Z,23
2016-07-25T19:18:55.189Z,22.9
2016-07-25T19:21:59.782Z,22.8
2016-07-25T19:25:13.840Z,22.8
2016-07-25T19:28:27.791Z,22.7
2016-07-25T19:31:40.830Z,22.7
2016-07-25T19:34:54.422Z,22.6
2016-07-25T19:38:08.367Z,22.6
2016-07-25T19:41:22.352Z,22.5
2016-07-25T19:44:36.272Z,22.5
2016-07-25T19:47:54.982Z,22.4
2016-07-25T19:50:59.622Z,22.4
2016-07-25T19:54:13.389Z,22.3
2016-07-25T19:57:27.442Z,22.3
2016-07-25T20:00:41.076Z,22.2
2016-07-25T20:03:54.882Z,22.2
2016-07-25T20:07:09.027Z,22.1
2016-07-25T20:10:23.072Z,22.1
2016-07-25T20:13:36.991Z,22
2016-07-25T20:16:56.135Z,22
2016-07-25T20:20:00.766Z,22
2016-07-25T20:23:14.632Z,21.9
2016-07-25T20:26:27.884Z,21.8
2016-07-25T20:29:41.680Z,21.8
2016-07-25T20:32:55.743Z,21.8
2016-07-25T20:36:09.677Z,21.7
2016-07-25T20:39:23.467Z,21.7
2016-07-25T20:42:36.867Z,21.6
2016-07-25T20:45:55.605Z,21.6
2016-07-25T20:49:00.158Z,21.6
2016-07-25T20:52:13.946Z,21.6
2016-07-25T20:55:27.459Z,21.5
2016-07-25T20:58:41.456Z,21.5
2016-07-25T21:01:54.972Z,21.5
2016-07-25T21:05:08.333Z,21.4
2016-07-25T21:08:20.241Z,21.4
2016-07-25T21:11:36.184Z,21.4
2016-07-25T21:14:53.443Z,21.4
2016-07-25T21:21:11.744Z,21.2
2016-07-25T21:24:25.855Z,21.2
2016-07-25T21:27:39.696Z,21.2
2016-07-25T21:30:58.554Z,21.2
2016-07-25T21:34:00.931Z,21.2
2016-07-25T21:37:16.864Z,21.2
2016-07-25T21:40:30.879Z,21.2
2016-07-25T21:43:49.861Z,21.2
2016-07-25T21:46:54.506Z,21.2
2016-07-25T21:50:08.530Z,21.1
2016-07-25T21:53:22.568Z,21.1
2016-07-25T21:56:35.926Z,21.1
2016-07-25T21:59:54.963Z,21.1
2016-07-25T22:02:59.487Z,21
2016-07-25T22:06:13.130Z,20.9
2016-07-25T22:09:27.069Z,20.9
2016-07-25T22:12:41.225Z,20.9
2016-07-25T22:15:54.454Z,20.9
2016-07-25T22:19:08.185Z,20.9
2016-07-25T22:22:21.799Z,20.9
2016-07-25T22:25:34.718Z,20.9
2016-07-25T22:28:53.319Z,20.9
2016-07-25T22:31:57.848Z,20.8
2016-07-25T22:35:11.402Z,20.8
2016-07-25T22:38:25.118Z,20.8
2016-07-25T22:41:38.709Z,20.8
2016-07-25T22:44:57.510Z,20.7
2016-07-25T22:48:01.949Z,20.7
2016-07-25T22:51:15.986Z,20.7
2016-07-25T22:54:29.972Z,20.7
2016-07-25T22:57:43.873Z,20.6
2016-07-25T23:00:57.731Z,20.6
2016-07-25T23:04:11.408Z,20.6
2016-07-25T23:07:25.313Z,20.6
2016-07-25T23:10:39.247Z,20.5
2016-07-25T23:13:57.634Z,20.5
2016-07-25T23:17:02.147Z,20.5
2016-07-25T23:20:15.905Z,20.5
2016-07-25T23:23:29.914Z,20.5
2016-07-25T23:26:43.562Z,20.5
2016-07-25T23:29:56.668Z,20.5
2016-07-25T23:33:10.718Z,20.5
2016-07-25T23:36:24.737Z,20.4
2016-07-25T23:39:38.856Z,20.4
2016-07-25T23:42:57.543Z,20.4
2016-07-25T23:46:01.954Z,20.4
2016-07-25T23:49:15.755Z,20.4
2016-07-25T23:52:28.838Z,20.4
2016-07-25T23:55:42.563Z,20.3
2016-07-25T23:58:56.046Z,20.3
